Julie — WCX8613 — position and weather

sailwx.info

Track history (hours):
 
Tides and Currents Weather Stations Pressure Air Temp Water Temp Dewpoint Dewpoint Depression Visibility Wind Speed Wind Dir Waves Ship Positions

Julie

Owner: PENN MARITIME INC, SEATTLE, WA. More information available from US FCC via Universal Licensing System and Coast Guard Vessel Documentation Center.

Last reported at 2014-Oct-15 12:26 UTC. Time now 2014-Oct-20 04:33 UTC.
Position N 29°56' W 090°12'.

Length 179 m; draft 5.8 m.

Type: Tow > 200 m length. MMSI: 368148000.

Date/timePositionNaut miles runAvg speedWind from/ knotsBaromVisibWave heightAir tempDewpointWater temp
2014-Oct-15 12:26N 29°56' W 090°12'6 6.3
2014-Oct-15 11:30N 29°55' W 090°05'2 1.6
2014-Oct-15 10:27N 29°56' W 090°03'  
2014-Oct-13 04:28N 29°57' W 090°18'6 5.8
2014-Oct-13 03:29N 29°59' W 090°24'0 0.0
2014-Oct-13 02:17N 29°59' W 090°24'0 0.0
2014-Oct-13 01:17N 29°59' W 090°24'0 0.0
2014-Oct-12 21:29N 29°59' W 090°24'0 0.0
2014-Oct-12 17:23N 29°59' W 090°24'0 0.0
2014-Oct-12 15:11N 29°59' W 090°24'0 0.0
2014-Oct-12 10:32N 29°59' W 090°24'0 0.0
2014-Oct-12 09:33N 29°59' W 090°24'  
2014-Oct-08 22:15N 29°23' W 094°52'1 1.1
2014-Oct-08 21:09N 29°23' W 094°53'  
Track history (hours):
 
Tides and Currents Weather Stations Pressure Air Temp Water Temp Dewpoint Dewpoint Depression Visibility Wind Speed Wind Dir Waves Ship Positions

Julie

Owner: PENN MARITIME INC, SEATTLE, WA. More information available from US FCC via Universal Licensing System and Coast Guard Vessel Documentation Center.

Last reported at 2014-Oct-15 12:26 UTC. Time now 2014-Oct-20 04:33 UTC.
Position N 29°56' W 090°12'.

Length 179 m; draft 5.8 m.

Type: Tow > 200 m length. MMSI: 368148000.

Date/timePositionNaut miles runAvg speedWind from/ knotsBaromVisibWave heightAir tempDewpointWater temp
2014-Oct-15 12:26N 29°56' W 090°12'6 6.3
2014-Oct-15 11:30N 29°55' W 090°05'2 1.6
2014-Oct-15 10:27N 29°56' W 090°03'  
2014-Oct-13 04:28N 29°57' W 090°18'6 5.8
2014-Oct-13 03:29N 29°59' W 090°24'0 0.0
2014-Oct-13 02:17N 29°59' W 090°24'0 0.0
2014-Oct-13 01:17N 29°59' W 090°24'0 0.0
2014-Oct-12 21:29N 29°59' W 090°24'0 0.0
2014-Oct-12 17:23N 29°59' W 090°24'0 0.0
2014-Oct-12 15:11N 29°59' W 090°24'0 0.0
2014-Oct-12 10:32N 29°59' W 090°24'0 0.0
2014-Oct-12 09:33N 29°59' W 090°24'  
2014-Oct-08 22:15N 29°23' W 094°52'1 1.1
2014-Oct-08 21:09N 29°23' W 094°53'  

Dump ship's entire track history